Terminal Aerodrome Forecast
Issued by NWS

Home | Current Version | Previous Version | Text Only | Print | Product List | Glossary On
Versions: 1 2 3 4 5 6 7 8 9 10 11 12 13 14 15 16 17 18 19 20 21 22
000
FTAK31 PAJN 311720
TAFAPG
TAF
PAPG 311720Z 3118/0118 VRB05KT P6SM -SHRA FEW020 SCT030 OVC060
     FM010400 VRB04KT P6SM VCSH BKN050 OVC100
     FM011200 VRB04KT P6SM VCFG BKN100=

USA.gov is the U.S. government's official web portal to all federal, state and local government web resources and services.